Time;durP1;ratioP1;P1;durP2;ratioP2;P2;SDS_P1;SDS_P2;PMS_P1;PMS_P2;Temp;Humidity;BMP_temperature;BMP_pressure;BME280_temperature;BME280_humidity;BME280_pressure;Samples;Min_cycle;Max_cycle;Signal;HPM_P1;HPM_P2
2022/10/27 00:02:23;;;;;;;31.48;5.93;;;12.50;99.90;;;;;;4978552;28;20026;-92
2022/10/27 00:04:48;;;;;;;29.15;6.60;;;12.50;99.90;;;;;;4978290;28;20031;-93
2022/10/27 00:07:14;;;;;;;31.60;4.47;;;12.60;99.90;;;;;;4982044;28;20093;-94
2022/10/27 00:09:41;;;;;;;28.60;4.05;;;12.50;99.90;;;;;;4982631;28;20022;-92
2022/10/27 00:12:07;;;;;;;31.55;5.28;;;12.50;99.90;;;;;;4979165;28;20109;-93
2022/10/27 00:14:32;;;;;;;33.20;5.55;;;12.60;99.90;;;;;;4978702;28;20069;-91
2022/10/27 00:16:58;;;;;;;37.67;6.47;;;12.50;99.90;;;;;;4981603;28;20034;-92
2022/10/27 00:19:24;;;;;;;39.10;4.65;;;12.60;99.90;;;;;;4985438;28;20061;-93
2022/10/27 00:21:50;;;;;;;28.75;4.30;;;12.50;99.90;;;;;;4984618;28;20443;-93
2022/10/27 00:24:17;;;;;;;40.30;5.18;;;12.50;99.90;;;;;;4977844;28;20042;-92
2022/10/27 00:26:43;;;;;;;35.03;4.32;;;12.50;99.90;;;;;;4977377;28;20031;-94
2022/10/27 00:29:08;;;;;;;33.22;5.35;;;12.50;99.90;;;;;;4977751;28;20023;-93
2022/10/27 00:31:34;;;;;;;37.85;5.75;;;12.50;99.90;;;;;;4977629;28;20081;-94
2022/10/27 00:34:00;;;;;;;34.25;5.18;;;12.50;99.90;;;;;;4977307;28;20084;-93
2022/10/27 00:36:25;;;;;;;39.38;5.13;;;12.50;99.90;;;;;;4977882;28;20062;-93
2022/10/27 00:38:56;;;;;;;26.92;4.13;;;12.50;99.90;;;;;;4976997;28;20499;-94
2022/10/27 00:41:27;;;;;;;30.20;4.72;;;12.50;99.90;;;;;;4976859;28;20530;-94
2022/10/27 00:43:54;;;;;;;36.35;4.63;;;12.50;99.90;;;;;;4976659;28;20431;-92
2022/10/27 00:46:44;;;;;;;25.98;4.20;;;12.60;99.90;;;;;;4976529;28;20081;-94
2022/10/27 00:49:16;;;;;;;36.05;7.57;;;12.50;99.90;;;;;;4976501;28;20023;-92
2022/10/27 00:51:49;;;;;;;33.17;4.57;;;12.50;99.90;;;;;;4976278;28;20030;-92
2022/10/27 00:54:18;;;;;;;35.08;5.07;;;12.60;99.90;;;;;;4977464;28;20026;-93
2022/10/27 00:56:46;;;;;;;33.55;4.60;;;12.50;99.90;;;;;;4961542;28;20042;-92
2022/10/27 00:59:13;;;;;;;37.33;4.10;;;12.50;99.90;;;;;;4977662;28;20064;-94
2022/10/27 01:01:40;;;;;;;36.15;4.78;;;12.50;99.90;;;;;;4977055;28;20027;-95
2022/10/27 01:04:07;;;;;;;34.55;5.35;;;12.50;99.90;;;;;;4976923;28;20514;-92
2022/10/27 01:06:34;;;;;;;34.75;4.90;;;12.50;99.90;;;;;;4977883;28;20123;-93
2022/10/27 01:09:01;;;;;;;32.15;4.63;;;12.50;99.90;;;;;;4977287;28;20049;-93
2022/10/27 01:11:27;;;;;;;42.85;5.20;;;12.50;99.90;;;;;;4983075;28;20134;-94
2022/10/27 01:13:53;;;;;;;31.10;4.82;;;12.50;99.90;;;;;;5006297;28;20041;-92
2022/10/27 01:16:38;;;;;;;40.88;4.93;;;12.50;99.90;;;;;;4988132;28;20395;-93
2022/10/27 01:19:32;;;;;;;38.88;4.68;;;12.50;99.90;;;;;;4977308;28;20042;-93
2022/10/27 01:22:06;;;;;;;32.45;5.32;;;12.50;99.90;;;;;;4976609;28;20030;-93
2022/10/27 01:25:16;;;;;;;34.80;5.53;;;12.40;99.90;;;;;;4976603;28;20034;-94
2022/10/27 01:28:10;;;;;;;34.92;6.05;;;12.40;99.90;;;;;;4980785;28;20049;-94
2022/10/27 01:31:12;;;;;;;38.40;4.97;;;12.40;99.90;;;;;;4976729;28;20431;-93
2022/10/27 01:33:59;;;;;;;38.00;6.93;;;12.40;99.90;;;;;;4977315;28;20060;-92
2022/10/27 01:36:36;;;;;;;40.05;4.82;;;12.40;99.90;;;;;;4978963;28;20040;-93
2022/10/27 01:39:15;;;;;;;36.95;6.25;;;12.40;99.90;;;;;;4974126;28;20037;-93
2022/10/27 01:41:49;;;;;;;40.15;5.60;;;12.40;99.90;;;;;;4976644;28;20117;-94
2022/10/27 01:44:27;;;;;;;33.70;5.65;;;12.30;99.90;;;;;;4981572;28;20155;-96
2022/10/27 01:46:54;;;;;;;41.58;5.50;;;12.30;99.90;;;;;;4965053;28;20151;-94
2022/10/27 01:49:20;;;;;;;31.38;5.55;;;12.30;99.90;;;;;;4980063;28;20559;-95
2022/10/27 01:51:50;;;;;;;41.88;5.35;;;12.30;99.90;;;;;;4962022;28;20031;-95
2022/10/27 01:54:18;;;;;;;32.95;5.50;;;12.30;99.90;;;;;;4961516;28;20031;-95
2022/10/27 01:56:53;;;;;;;35.05;5.45;;;12.30;99.90;;;;;;4978327;28;20085;-93
2022/10/27 01:59:28;;;;;;;35.35;6.25;;;12.30;99.90;;;;;;4962228;28;20098;-94
2022/10/27 02:02:14;;;;;;;33.22;4.65;;;12.30;99.90;;;;;;4962553;28;20070;-94
2022/10/27 02:04:46;;;;;;;34.50;4.70;;;12.30;99.90;;;;;;4960559;28;20066;-93
2022/10/27 02:07:15;;;;;;;34.50;5.00;;;12.30;99.90;;;;;;4960928;28;20121;-93
2022/10/27 02:09:43;;;;;;;32.05;6.50;;;12.30;99.90;;;;;;4965071;28;20476;-95
2022/10/27 02:12:46;;;;;;;38.33;5.68;;;12.30;99.90;;;;;;4963063;28;20464;-96
2022/10/27 02:15:27;;;;;;;37.00;5.18;;;12.30;99.90;;;;;;4898666;29;20036;-92
2022/10/27 02:17:59;;;;;;;40.22;5.50;;;12.30;99.90;;;;;;4897284;29;20633;-91
2022/10/27 02:20:29;;;;;;;36.72;5.78;;;12.30;99.90;;;;;;4898448;29;20064;-92
2022/10/27 02:22:56;;;;;;;33.47;4.10;;;12.30;99.90;;;;;;4915160;29;20044;-92
2022/10/27 02:25:27;;;;;;;29.50;4.60;;;12.30;99.90;;;;;;4908197;29;20494;-93
2022/10/27 02:28:00;;;;;;;43.28;4.88;;;12.30;99.90;;;;;;4901521;29;20054;-91
2022/10/27 02:30:26;;;;;;;44.60;4.78;;;12.30;99.90;;;;;;4917586;29;20068;-93
2022/10/27 02:32:52;;;;;;;27.30;4.75;;;12.30;99.90;;;;;;4917564;29;20024;-91
2022/10/27 02:35:19;;;;;;;35.47;5.00;;;12.30;99.90;;;;;;4916922;29;20032;-91
2022/10/27 02:37:45;;;;;;;23.02;4.75;;;12.20;99.90;;;;;;4916940;29;20127;-92
2022/10/27 02:40:10;;;;;;;38.97;5.78;;;12.20;99.90;;;;;;4916235;29;20039;-95
2022/10/27 02:42:36;;;;;;;26.83;5.07;;;12.30;99.90;;;;;;4916759;29;20040;-92
2022/10/27 02:45:03;;;;;;;28.10;4.88;;;12.30;99.90;;;;;;4917846;29;20072;-93
2022/10/27 02:47:28;;;;;;;36.08;6.10;;;12.30;99.90;;;;;;4916356;29;20478;-92
2022/10/27 02:49:54;;;;;;;49.13;5.90;;;12.30;99.90;;;;;;4964489;28;20248;-93
2022/10/27 02:52:20;;;;;;;40.45;5.50;;;12.30;99.90;;;;;;4977240;28;20030;-94
2022/10/27 02:54:47;;;;;;;33.92;5.05;;;12.30;99.90;;;;;;4960462;28;20061;-95
2022/10/27 02:57:17;;;;;;;41.65;5.40;;;12.30;99.90;;;;;;4959110;28;20035;-91
2022/10/27 02:59:47;;;;;;;30.85;5.28;;;12.30;99.90;;;;;;4958132;28;20062;-93
2022/10/27 03:02:13;;;;;;;40.17;5.82;;;12.30;99.90;;;;;;4958471;28;20404;-94
2022/10/27 03:04:39;;;;;;;29.63;4.78;;;12.30;99.90;;;;;;4960115;28;20045;-93
2022/10/27 03:07:04;;;;;;;31.42;6.55;;;12.30;99.90;;;;;;4960161;28;20443;-93
2022/10/27 03:09:30;;;;;;;41.47;4.85;;;12.30;99.90;;;;;;4959836;28;20098;-94
2022/10/27 03:11:56;;;;;;;33.58;4.25;;;12.40;99.90;;;;;;4973722;28;20034;-93
2022/10/27 03:14:21;;;;;;;30.42;5.07;;;12.40;99.90;;;;;;4979126;28;20088;-94
2022/10/27 03:16:47;;;;;;;36.75;4.18;;;12.40;99.90;;;;;;4978915;28;20022;-94
2022/10/27 03:19:13;;;;;;;35.35;4.93;;;12.40;99.90;;;;;;4980719;28;20085;-94
2022/10/27 03:21:38;;;;;;;29.85;5.93;;;12.40;99.90;;;;;;4980347;28;20467;-94
2022/10/27 03:24:04;;;;;;;44.42;5.07;;;12.50;99.90;;;;;;4980130;28;20127;-93
2022/10/27 03:26:30;;;;;;;32.42;5.68;;;12.50;99.90;;;;;;4979983;28;20022;-92
2022/10/27 03:28:55;;;;;;;28.42;3.92;;;12.50;99.90;;;;;;4978398;28;20026;-91
2022/10/27 03:31:21;;;;;;;32.53;3.90;;;12.50;99.90;;;;;;4977867;28;20031;-94
2022/10/27 03:33:48;;;;;;;33.53;3.97;;;12.50;99.90;;;;;;4980213;28;20023;-95
2022/10/27 03:36:14;;;;;;;25.88;4.28;;;12.50;99.90;;;;;;4981680;28;20058;-93
2022/10/27 03:38:39;;;;;;;26.77;4.22;;;12.50;99.90;;;;;;4983851;28;20034;-95
2022/10/27 03:41:08;;;;;;;31.08;5.53;;;12.60;99.90;;;;;;4984778;28;20439;-93
2022/10/27 03:43:33;;;;;;;35.53;5.85;;;12.60;99.90;;;;;;4963027;28;20045;-95
2022/10/27 03:45:59;;;;;;;37.55;4.53;;;12.60;99.90;;;;;;4977771;28;20416;-94
2022/10/27 03:48:25;;;;;;;30.45;4.57;;;12.50;99.90;;;;;;4977216;28;20030;-94
2022/10/27 03:50:51;;;;;;;29.25;4.07;;;12.50;99.90;;;;;;4977932;28;20026;-93
2022/10/27 03:53:17;;;;;;;30.52;4.55;;;12.60;99.90;;;;;;4978264;28;20512;-94
2022/10/27 03:55:43;;;;;;;30.02;6.22;;;12.50;99.90;;;;;;4976447;28;20105;-93
2022/10/27 03:58:14;;;;;;;28.35;4.72;;;12.60;99.90;;;;;;4976918;28;20034;-93
2022/10/27 04:00:40;;;;;;;29.65;5.00;;;12.60;99.90;;;;;;4975957;28;20031;-93
2022/10/27 04:03:06;;;;;;;30.70;4.18;;;12.60;99.90;;;;;;4976381;28;20526;-92
2022/10/27 04:05:32;;;;;;;39.55;5.40;;;12.50;99.90;;;;;;4976696;28;20037;-94
2022/10/27 04:07:58;;;;;;;38.80;5.07;;;12.60;99.90;;;;;;4976554;28;20427;-94
2022/10/27 04:10:24;;;;;;;41.90;5.63;;;12.50;99.90;;;;;;4975837;28;20026;-93
2022/10/27 04:12:52;;;;;;;30.98;4.15;;;12.50;99.90;;;;;;4975788;28;20034;-93
2022/10/27 04:15:19;;;;;;;39.30;6.43;;;12.50;99.90;;;;;;4976728;28;20022;-93
2022/10/27 04:17:45;;;;;;;26.23;4.13;;;12.50;99.90;;;;;;4976097;28;20125;-92
2022/10/27 04:20:11;;;;;;;34.47;4.70;;;12.50;99.90;;;;;;4976408;28;20137;-95
2022/10/27 04:22:36;;;;;;;34.35;5.13;;;12.50;99.90;;;;;;4975296;28;20113;-94
2022/10/27 04:25:02;;;;;;;45.00;6.90;;;12.50;99.90;;;;;;4974588;28;20109;-94
2022/10/27 04:27:28;;;;;;;39.53;5.45;;;12.50;99.90;;;;;;4975822;28;20471;-95
2022/10/27 04:29:54;;;;;;;32.17;5.60;;;12.50;99.90;;;;;;4976289;28;20022;-93
2022/10/27 04:32:19;;;;;;;29.98;4.78;;;12.50;99.90;;;;;;4975657;28;20038;-93
2022/10/27 04:34:45;;;;;;;43.65;5.18;;;12.40;99.90;;;;;;4976091;28;20365;-94
2022/10/27 04:37:11;;;;;;;35.83;5.53;;;12.40;99.90;;;;;;4975879;28;20466;-94
2022/10/27 04:39:37;;;;;;;30.98;5.50;;;12.50;99.90;;;;;;4975612;28;20026;-95
2022/10/27 04:42:02;;;;;;;32.35;6.80;;;12.40;99.90;;;;;;4975479;28;20072;-94
2022/10/27 04:44:28;;;;;;;34.80;6.55;;;12.40;99.90;;;;;;4975778;28;20415;-94
2022/10/27 04:46:54;;;;;;;28.83;5.03;;;12.40;99.90;;;;;;4975394;28;20500;-94
2022/10/27 04:49:19;;;;;;;35.60;5.72;;;12.40;99.90;;;;;;4975693;28;20177;-96
2022/10/27 04:51:45;;;;;;;30.30;4.55;;;12.40;99.90;;;;;;4975559;28;20534;-93
2022/10/27 04:54:10;;;;;;;36.13;5.10;;;12.40;99.90;;;;;;4977750;28;20066;-95
2022/10/27 04:56:36;;;;;;;47.75;6.15;;;12.40;99.90;;;;;;4977995;28;20080;-95
2022/10/27 04:59:02;;;;;;;27.17;5.35;;;12.40;99.90;;;;;;4976254;28;20133;-95
2022/10/27 05:01:27;;;;;;;39.90;6.30;;;12.40;99.90;;;;;;4977908;28;20019;-92
2022/10/27 05:03:53;;;;;;;35.40;6.10;;;12.50;99.90;;;;;;4979875;28;20027;-95
2022/10/27 05:06:19;;;;;;;40.47;6.75;;;12.40;99.90;;;;;;4983170;28;20022;-94
2022/10/27 05:08:44;;;;;;;43.58;8.70;;;12.40;99.90;;;;;;4979390;28;20045;-94
2022/10/27 05:11:10;;;;;;;42.42;6.90;;;12.40;99.90;;;;;;4975586;28;20160;-94
2022/10/27 05:13:36;;;;;;;28.50;5.57;;;12.40;99.90;;;;;;4976449;28;20038;-96
2022/10/27 05:16:05;;;;;;;34.35;5.95;;;12.40;99.90;;;;;;4975766;28;20538;-93
2022/10/27 05:18:31;;;;;;;34.38;7.13;;;12.40;99.90;;;;;;4975747;28;20046;-92
2022/10/27 05:20:57;;;;;;;34.28;6.20;;;12.40;99.90;;;;;;4976514;28;20042;-93
2022/10/27 05:23:23;;;;;;;38.38;6.22;;;12.30;99.90;;;;;;4979534;28;20074;-94
2022/10/27 05:25:53;;;;;;;24.20;5.85;;;12.30;99.90;;;;;;4979343;28;20026;-92
2022/10/27 05:28:19;;;;;;;35.60;5.67;;;12.30;99.90;;;;;;4996456;28;20033;-92
2022/10/27 05:30:44;;;;;;;34.72;5.20;;;12.30;99.90;;;;;;4979092;28;20274;-93
2022/10/27 05:33:10;;;;;;;25.02;5.00;;;12.30;99.90;;;;;;4979121;28;20033;-93
2022/10/27 05:35:36;;;;;;;28.17;5.75;;;12.30;99.90;;;;;;4978698;28;20033;-93
2022/10/27 05:38:03;;;;;;;30.73;5.40;;;12.40;99.90;;;;;;4979104;28;20101;-92
2022/10/27 05:40:33;;;;;;;32.33;5.40;;;12.40;99.90;;;;;;4978704;28;20062;-94
2022/10/27 05:43:00;;;;;;;33.42;4.97;;;12.40;99.90;;;;;;4979343;28;20059;-94
2022/10/27 05:45:26;;;;;;;32.20;5.78;;;12.40;99.90;;;;;;4978927;28;20101;-93
2022/10/27 05:48:04;;;;;;;37.60;5.68;;;12.40;99.90;;;;;;4979160;28;20069;-95
2022/10/27 05:50:31;;;;;;;33.28;5.68;;;12.40;99.90;;;;;;4978479;28;20030;-94
2022/10/27 05:53:19;;;;;;;24.60;4.75;;;12.40;99.90;;;;;;4979651;28;20022;-94
2022/10/27 05:55:47;;;;;;;29.30;5.97;;;12.40;99.90;;;;;;4965337;28;20045;-93
2022/10/27 05:58:28;;;;;;;22.45;5.30;;;12.40;99.90;;;;;;4960831;28;20085;-94
2022/10/27 06:01:02;;;;;;;32.92;5.00;;;12.40;99.90;;;;;;4962554;28;20037;-94
2022/10/27 06:03:35;;;;;;;28.88;6.65;;;12.40;99.90;;;;;;4971338;28;20135;-92
2022/10/27 06:06:26;;;;;;;36.97;5.45;;;12.40;99.90;;;;;;4971895;28;20026;-93
2022/10/27 06:08:55;;;;;;;25.52;6.53;;;12.40;99.90;;;;;;4979225;28;20029;-94
2022/10/27 06:11:24;;;;;;;23.50;5.30;;;12.40;99.90;;;;;;4976472;28;20042;-94
2022/10/27 06:13:53;;;;;;;21.15;5.13;;;12.40;99.90;;;;;;4978957;28;20109;-92
2022/10/27 06:16:25;;;;;;;35.78;6.38;;;12.50;99.90;;;;;;4978843;28;20026;-91
2022/10/27 06:18:53;;;;;;;20.13;5.40;;;12.50;99.90;;;;;;4979600;28;20033;-92
2022/10/27 06:21:20;;;;;;;29.25;5.35;;;12.50;99.90;;;;;;4975603;28;20047;-92
2022/10/27 06:23:49;;;;;;;29.38;7.13;;;12.50;99.90;;;;;;4958204;28;20019;-92
2022/10/27 06:26:17;;;;;;;19.40;5.45;;;12.50;99.90;;;;;;4975711;28;20018;-92
2022/10/27 06:28:43;;;;;;;26.35;5.80;;;12.50;99.90;;;;;;4969920;28;20037;-93
2022/10/27 06:31:08;;;;;;;21.92;5.45;;;12.50;99.90;;;;;;4958438;28;20030;-93
2022/10/27 06:33:38;;;;;;;19.00;4.85;;;12.50;99.90;;;;;;4958478;28;20034;-92
2022/10/27 06:36:04;;;;;;;19.77;5.50;;;12.50;99.90;;;;;;4948903;29;20058;-92
2022/10/27 06:38:52;;;;;;;24.38;6.85;;;12.50;99.90;;;;;;4931198;29;20077;-93
2022/10/27 06:41:26;;;;;;;30.67;6.45;;;12.50;99.90;;;;;;4973159;28;20091;-95
2022/10/27 06:46:54;;;;;;;21.77;6.50;;;12.50;99.90;;;;;;4976057;28;20399;-94
2022/10/27 06:49:32;;;;;;;17.15;5.55;;;12.50;99.90;;;;;;4976269;28;20535;-96
2022/10/27 06:51:59;;;;;;;18.70;5.38;;;12.50;99.90;;;;;;4960029;28;20133;-95
2022/10/27 06:54:31;;;;;;;20.27;5.32;;;12.50;99.90;;;;;;4960381;28;20026;-95
2022/10/27 06:57:00;;;;;;;15.30;5.88;;;12.60;99.90;;;;;;4945747;28;20031;-93
2022/10/27 06:59:27;;;;;;;18.65;4.97;;;12.60;99.90;;;;;;4976925;28;20034;-94
2022/10/27 07:02:25;;;;;;;18.92;6.20;;;12.60;99.90;;;;;;4972745;28;20046;-95
2022/10/27 07:05:06;;;;;;;20.60;5.93;;;12.60;99.90;;;;;;4965306;28;20114;-96
2022/10/27 07:07:32;;;;;;;14.70;5.80;;;12.60;99.90;;;;;;4965138;28;20058;-96
2022/10/27 07:10:16;;;;;;;14.02;6.18;;;12.60;99.90;;;;;;4979986;28;20043;-95
2022/10/27 07:13:37;;;;;;;14.68;6.38;;;12.60;99.90;;;;;;4963042;28;20018;-95
2022/10/27 07:20:05;;;;;;;16.92;7.28;;;12.60;99.90;;;;;;4972520;28;20092;-95
2022/10/27 07:23:19;;;;;;;14.90;7.07;;;12.60;99.90;;;;;;4991281;28;20369;-96
2022/10/27 07:26:13;;;;;;;18.58;7.90;;;12.70;99.90;;;;;;4977494;28;20038;-93
2022/10/27 07:29:07;;;;;;;16.73;6.68;;;12.70;99.90;;;;;;4995174;28;20027;-94
2022/10/27 07:31:34;;;;;;;17.05;7.25;;;12.70;99.90;;;;;;4978197;28;20026;-92
2022/10/27 07:34:23;;;;;;;20.17;7.45;;;12.70;99.90;;;;;;4977811;28;20111;-93
2022/10/27 07:36:52;;;;;;;17.07;7.10;;;12.70;99.90;;;;;;4977690;28;20033;-94
2022/10/27 07:39:24;;;;;;;22.75;8.50;;;12.70;99.90;;;;;;4995427;28;20038;-94
2022/10/27 07:41:59;;;;;;;23.13;8.20;;;12.70;99.90;;;;;;4978005;28;20023;-95
2022/10/27 07:44:28;;;;;;;20.08;8.18;;;12.80;99.90;;;;;;4978717;28;20035;-95
2022/10/27 07:47:38;;;;;;;28.42;8.43;;;12.70;99.90;;;;;;4997734;28;20026;-95
2022/10/27 07:50:32;;;;;;;23.30;9.18;;;12.80;99.90;;;;;;4987871;28;20022;-95
2022/10/27 07:53:33;;;;;;;21.42;8.40;;;12.80;99.90;;;;;;4995434;28;20057;-94
2022/10/27 07:56:15;;;;;;;22.20;8.00;;;12.80;99.90;;;;;;4979250;28;20488;-94
2022/10/27 07:58:50;;;;;;;17.45;8.10;;;12.80;99.90;;;;;;4994604;28;20141;-96
2022/10/27 08:01:38;;;;;;;21.38;8.23;;;12.80;99.90;;;;;;4965860;28;20035;-95
2022/10/27 08:04:34;;;;;;;21.00;7.72;;;12.80;99.90;;;;;;4997098;28;20030;-93
2022/10/27 08:11:28;;;;;;;16.17;7.35;;;12.80;99.90;;;;;;5003021;28;20025;-96
2022/10/27 08:14:34;;;;;;;19.65;8.07;;;12.90;99.90;;;;;;4961606;28;20011;-96
2022/10/27 08:17:34;;;;;;;16.50;8.65;;;12.90;99.90;;;;;;5011647;28;20039;-93
2022/10/27 08:20:52;;;;;;;25.23;8.95;;;12.90;99.90;;;;;;5009275;28;20046;-96
2022/10/27 08:23:47;;;;;;;20.80;8.82;;;12.90;99.90;;;;;;5001876;28;20073;-94
2022/10/27 08:26:47;;;;;;;21.38;8.30;;;12.90;99.90;;;;;;5008696;28;20030;-96
2022/10/27 08:29:26;;;;;;;20.77;8.15;;;12.90;99.90;;;;;;5000560;28;20041;-95
2022/10/27 08:32:16;;;;;;;15.85;7.78;;;13.00;99.90;;;;;;4999796;28;20041;-96
2022/10/27 08:35:08;;;;;;;17.10;7.97;;;13.00;99.90;;;;;;4997116;28;20063;-96
2022/10/27 08:37:48;;;;;;;18.48;7.20;;;13.00;99.90;;;;;;4987614;28;20027;-96
2022/10/27 08:40:29;;;;;;;16.47;8.40;;;13.00;99.90;;;;;;4998099;28;20106;-96
2022/10/27 08:43:03;;;;;;;;;;;13.00;99.90;;;;;;4986454;28;20018;-96
2022/10/27 08:46:00;;;;;;;16.45;8.23;;;13.10;99.90;;;;;;4992300;28;19894;-95
2022/10/27 08:49:12;;;;;;;18.38;7.72;;;13.10;99.90;;;;;;4986005;28;20040;-96
2022/10/27 08:52:22;;;;;;;21.13;8.82;;;13.10;99.90;;;;;;4999715;28;20041;-96
2022/10/27 08:55:32;;;;;;;15.13;7.65;;;13.10;99.90;;;;;;4997137;28;20015;-96
2022/10/27 08:58:40;;;;;;;17.45;7.75;;;13.20;99.90;;;;;;4994043;28;20038;-96
2022/10/27 09:01:35;;;;;;;15.02;7.10;;;13.20;99.90;;;;;;5008697;28;20117;-96
2022/10/27 09:04:48;;;;;;;17.35;8.82;;;13.20;99.90;;;;;;5011099;28;20050;-95
2022/10/27 09:08:01;;;;;;;15.43;8.10;;;13.20;99.90;;;;;;4978422;28;20042;-92
2022/10/27 09:10:42;;;;;;;22.65;8.48;;;13.30;99.90;;;;;;5005310;28;20007;-92
2022/10/27 09:13:45;;;;;;;16.05;7.40;;;13.30;99.90;;;;;;5012704;28;20045;-90
2022/10/27 09:16:26;;;;;;;14.57;6.97;;;13.30;99.90;;;;;;4995442;28;20041;-91
2022/10/27 09:19:15;;;;;;;15.18;6.40;;;13.40;99.90;;;;;;5005843;28;20034;-91
2022/10/27 09:22:49;;;;;;;14.32;6.45;;;13.50;99.90;;;;;;5009991;28;20038;-91
2022/10/27 09:26:29;;;;;;;13.25;7.30;;;13.50;99.90;;;;;;4913177;29;20036;-90
2022/10/27 09:29:29;;;;;;;13.27;6.50;;;13.60;99.90;;;;;;5010759;28;20026;-91
2022/10/27 09:32:52;;;;;;;10.95;6.55;;;13.70;99.90;;;;;;5011576;28;20054;-96
2022/10/27 09:35:48;;;;;;;12.55;5.63;;;13.70;99.90;;;;;;5014384;28;20030;-96
2022/10/27 09:38:33;;;;;;;13.70;6.15;;;13.80;99.90;;;;;;4992443;28;20058;-96
2022/10/27 09:41:04;;;;;;;12.13;5.55;;;13.80;99.90;;;;;;5008634;28;20487;-96
2022/10/27 09:43:32;;;;;;;12.02;5.38;;;13.90;99.90;;;;;;4975309;28;20098;-96
2022/10/27 09:46:22;;;;;;;10.82;6.15;;;13.90;99.90;;;;;;4994036;28;20034;-96
2022/10/27 09:48:51;;;;;;;7.97;5.25;;;14.00;99.90;;;;;;4993152;28;20025;-95
2022/10/27 09:51:28;;;;;;;11.25;5.30;;;14.00;99.90;;;;;;4982309;28;20046;-95
2022/10/27 09:53:59;;;;;;;12.43;4.78;;;14.10;99.90;;;;;;5000815;28;20034;-95
2022/10/27 09:56:31;;;;;;;7.20;4.55;;;14.10;99.90;;;;;;4990732;28;20030;-94
2022/10/27 09:59:02;;;;;;;17.33;5.30;;;14.20;99.90;;;;;;4993340;28;20042;-95
2022/10/27 10:01:56;;;;;;;9.05;4.47;;;14.20;99.90;;;;;;4978001;28;20014;-94
2022/10/27 10:04:26;;;;;;;9.60;4.47;;;14.20;99.90;;;;;;4976566;28;20031;-94
2022/10/27 10:10:53;;;;;;;10.27;4.18;;;14.30;99.90;;;;;;4998345;28;20097;-96
2022/10/27 10:13:42;;;;;;;6.35;4.10;;;14.40;99.90;;;;;;4990987;28;20357;-94
2022/10/27 10:16:52;;;;;;;6.63;3.58;;;14.40;99.90;;;;;;5002146;28;20030;-96
2022/10/27 10:19:45;;;;;;;4.68;2.65;;;14.40;99.90;;;;;;4997176;28;20056;-95
2022/10/27 10:22:35;;;;;;;4.22;2.33;;;14.40;99.90;;;;;;4993262;28;20035;-96
2022/10/27 10:25:26;;;;;;;8.43;2.67;;;14.50;99.90;;;;;;4960428;28;20031;-96
2022/10/27 10:28:03;;;;;;;4.82;2.40;;;14.50;99.90;;;;;;4971325;28;20109;-96
2022/10/27 10:30:37;;;;;;;3.75;2.22;;;14.60;99.90;;;;;;4955576;28;20036;-96
2022/10/27 10:33:15;;;;;;;5.05;2.42;;;14.60;99.90;;;;;;4961665;28;20097;-95
2022/10/27 10:35:48;;;;;;;8.50;2.72;;;14.60;99.90;;;;;;4977294;28;20030;-94
2022/10/27 10:38:33;;;;;;;5.68;2.80;;;14.70;99.90;;;;;;4998741;28;20345;-96
2022/10/27 10:41:15;;;;;;;10.02;3.20;;;14.70;99.90;;;;;;4991451;28;20030;-95
2022/10/27 10:44:00;;;;;;;8.57;3.75;;;14.80;99.90;;;;;;4976496;28;20013;-95
2022/10/27 10:46:26;;;;;;;6.95;3.97;;;14.80;99.90;;;;;;4973264;28;20011;-96
2022/10/27 10:49:05;;;;;;;5.28;3.78;;;14.80;99.90;;;;;;4978828;28;20105;-95
2022/10/27 10:51:35;;;;;;;13.32;4.88;;;14.90;99.90;;;;;;4995030;28;20015;-93
2022/10/27 10:54:05;;;;;;;12.63;6.07;;;14.90;99.90;;;;;;4958073;28;20024;-95
2022/10/27 10:56:37;;;;;;;13.07;6.68;;;14.90;99.90;;;;;;4978903;28;20019;-95
2022/10/27 10:59:42;;;;;;;15.80;7.60;;;14.90;99.90;;;;;;4980634;28;20027;-93
2022/10/27 11:02:40;;;;;;;11.25;7.72;;;14.90;99.90;;;;;;4964184;28;20034;-96
2022/10/27 11:05:14;;;;;;;15.80;10.25;;;14.90;99.90;;;;;;4921300;29;20072;-94
2022/10/27 11:07:40;;;;;;;15.55;9.35;;;14.90;99.90;;;;;;4920880;29;20104;-96
2022/10/27 11:10:32;;;;;;;19.17;10.82;;;14.90;99.90;;;;;;4920664;29;20036;-96
2022/10/27 11:13:42;;;;;;;19.55;11.15;;;15.00;99.90;;;;;;4937860;29;20115;-94
2022/10/27 11:16:18;;;;;;;21.63;12.13;;;15.00;99.90;;;;;;4912671;29;20051;-96
2022/10/27 11:18:57;;;;;;;25.92;12.85;;;14.90;99.90;;;;;;4921080;29;20046;-95
2022/10/27 11:21:48;;;;;;;23.47;12.87;;;15.00;99.90;;;;;;4922670;29;20052;-96
2022/10/27 11:24:19;;;;;;;21.98;12.98;;;14.90;99.90;;;;;;4957722;28;20043;-93
2022/10/27 11:27:15;;;;;;;23.35;13.48;;;14.90;99.90;;;;;;4958121;28;20019;-95
2022/10/27 11:30:02;;;;;;;26.15;13.90;;;14.90;99.90;;;;;;4960825;29;20031;-96
2022/10/27 11:32:48;;;;;;;23.02;14.18;;;14.90;99.90;;;;;;4958294;28;20086;-96
2022/10/27 11:35:59;;;;;;;25.80;14.25;;;14.90;99.90;;;;;;4968024;28;20043;-96
2022/10/27 11:38:55;;;;;;;28.15;13.60;;;14.90;99.90;;;;;;4889942;29;20037;-95
2022/10/27 11:41:51;;;;;;;15.30;10.52;;;14.80;99.90;;;;;;4898676;29;20119;-96
2022/10/27 11:44:35;;;;;;;19.58;10.82;;;14.80;99.90;;;;;;4906299;29;20037;-95
2022/10/27 11:47:09;;;;;;;19.23;11.95;;;14.80;99.90;;;;;;4896303;29;20055;-95
2022/10/27 11:49:44;;;;;;;18.90;11.52;;;14.80;99.90;;;;;;4910050;29;20241;-93
2022/10/27 11:52:35;;;;;;;19.33;10.93;;;14.90;99.90;;;;;;4883621;29;20020;-94
2022/10/27 11:55:01;;;;;;;;;;;14.90;99.90;;;;;;4893966;29;20032;-94
2022/10/27 11:58:08;;;;;;;17.10;10.88;;;14.90;99.90;;;;;;4886176;29;20023;-93
2022/10/27 12:01:30;;;;;;;22.80;9.10;;;15.00;99.90;;;;;;4907340;29;20154;-94
2022/10/27 12:04:14;;;;;;;15.45;9.15;;;15.00;99.90;;;;;;4898279;29;20032;-95
2022/10/27 12:06:55;;;;;;;12.20;7.68;;;15.00;99.90;;;;;;4895879;29;20029;-95
2022/10/27 12:09:48;;;;;;;15.10;8.13;;;15.00;99.90;;;;;;4910991;29;20032;-96
2022/10/27 12:12:27;;;;;;;12.57;8.38;;;15.10;99.90;;;;;;4924389;28;20044;-95
2022/10/27 12:15:34;;;;;;;11.90;7.80;;;15.10;99.90;;;;;;4970958;28;20023;-96
2022/10/27 12:18:22;;;;;;;14.30;7.88;;;15.20;99.90;;;;;;4974296;28;20031;-93
2022/10/27 12:20:54;;;;;;;13.00;7.63;;;15.20;99.90;;;;;;4990073;28;20034;-95
2022/10/27 12:23:33;;;;;;;12.85;7.40;;;15.30;99.90;;;;;;5001181;28;20086;-96
2022/10/27 12:26:40;;;;;;;11.85;6.72;;;15.40;99.90;;;;;;5010477;28;20054;-93
2022/10/27 12:29:08;;;;;;;18.77;7.15;;;15.40;99.90;;;;;;4919528;28;20075;-95
2022/10/27 12:31:43;;;;;;;13.73;6.72;;;15.50;99.90;;;;;;4915299;28;20032;-96
2022/10/27 12:34:14;;;;;;;16.98;7.07;;;15.50;99.90;;;;;;4905250;29;20032;-94
2022/10/27 12:36:54;;;;;;;15.55;5.90;;;15.50;99.90;;;;;;4900132;29;20028;-95
2022/10/27 12:39:26;;;;;;;12.43;6.25;;;15.50;99.90;;;;;;4890795;29;20507;-96
2022/10/27 12:42:10;;;;;;;10.10;5.47;;;15.50;99.90;;;;;;4908262;29;20128;-94
2022/10/27 12:44:55;;;;;;;12.68;5.72;;;15.40;99.90;;;;;;4909843;29;20055;-96
2022/10/27 12:47:41;;;;;;;13.98;7.30;;;15.40;99.90;;;;;;4915543;29;20016;-96
2022/10/27 12:50:07;;;;;;;13.18;5.18;;;15.40;99.90;;;;;;4933291;29;20020;-95
2022/10/27 12:52:40;;;;;;;17.92;6.18;;;15.40;99.90;;;;;;4920255;29;20040;-95
2022/10/27 12:55:40;;;;;;;14.07;6.00;;;15.40;99.90;;;;;;4904132;29;20123;-96
2022/10/27 12:58:17;;;;;;;17.58;5.68;;;15.40;99.90;;;;;;4919119;29;20059;-96
2022/10/27 13:01:05;;;;;;;12.00;5.72;;;15.40;99.90;;;;;;4904867;29;20028;-94
2022/10/27 13:03:58;;;;;;;13.90;5.28;;;15.40;99.90;;;;;;4962475;28;20026;-94
2022/10/27 13:06:56;;;;;;;12.60;5.75;;;15.40;99.90;;;;;;4975268;28;20066;-95
2022/10/27 13:09:41;;;;;;;8.32;5.00;;;15.40;99.90;;;;;;4968541;28;20057;-94
2022/10/27 13:12:25;;;;;;;13.48;5.35;;;15.40;99.90;;;;;;4986415;28;20078;-94
2022/10/27 13:15:28;;;;;;;18.52;7.63;;;15.30;99.90;;;;;;4991893;28;20034;-95
2022/10/27 13:18:19;;;;;;;16.60;6.82;;;15.30;99.90;;;;;;4911788;29;20045;-95
2022/10/27 13:21:05;;;;;;;13.63;5.55;;;15.30;99.90;;;;;;4897865;29;20040;-95
2022/10/27 13:23:55;;;;;;;14.82;6.10;;;15.30;99.90;;;;;;4887941;29;20072;-94
2022/10/27 13:26:40;;;;;;;10.98;4.80;;;15.30;99.90;;;;;;4890467;29;20064;-95
2022/10/27 13:29:22;;;;;;;11.35;4.60;;;15.30;99.90;;;;;;4904252;29;20029;-95
2022/10/27 13:32:18;;;;;;;9.82;5.25;;;15.40;99.90;;;;;;4888057;29;20128;-96
2022/10/27 13:35:00;;;;;;;7.70;3.90;;;15.40;99.90;;;;;;4907789;29;20039;-96
2022/10/27 13:37:54;;;;;;;10.27;4.50;;;15.40;99.90;;;;;;4907920;29;20075;-94
2022/10/27 13:40:20;;;;;;;13.82;4.30;;;15.40;99.90;;;;;;4900126;29;20036;-93
2022/10/27 13:42:56;;;;;;;8.80;3.50;;;15.40;99.90;;;;;;4902293;29;20047;-96
2022/10/27 13:45:36;;;;;;;7.50;3.63;;;15.40;99.90;;;;;;4906077;29;20587;-94
2022/10/27 13:48:07;;;;;;;7.53;3.88;;;15.40;99.90;;;;;;4906949;29;20431;-95